Time;durP1;ratioP1;P1;durP2;ratioP2;P2;SDS_P1;SDS_P2;PMS_P1;PMS_P2;Temp;Humidity;BMP_temperature;BMP_pressure;BME280_temperature;BME280_humidity;BME280_pressure;Samples;Min_cycle;Max_cycle;Signal;HPM_P1;HPM_P2
2022/06/24 00:00:55;;;;;;;;;17.50;17.50;;;;;28.85;52.86;100568.53;146609;611;46008;-68
2022/06/24 00:03:50;;;;;;;;;22.75;20.50;;;;;28.86;51.80;100572.06;146605;594;46018;-68
2022/06/24 00:06:50;;;;;;;;;18.50;17.50;;;;;28.84;51.58;100565.87;146608;597;46019;-69
2022/06/24 00:09:44;;;;;;;;;22.50;20.75;;;;;28.80;51.65;100556.22;146605;665;46018;-68
2022/06/24 00:12:36;;;;;;;;;20.00;19.25;;;;;28.80;52.44;100550.88;146607;759;46008;-68
2022/06/24 00:15:30;;;;;;;;;25.75;24.00;;;;;28.71;52.63;100552.00;146606;628;46010;-66
2022/06/24 00:18:23;;;;;;;;;21.00;16.50;;;;;28.59;53.56;100557.66;146605;641;46018;-67
2022/06/24 00:21:16;;;;;;;;;22.00;20.75;;;;;28.45;53.95;100553.56;146609;567;45038;-66
2022/06/24 00:24:09;;;;;;;;;23.50;20.25;;;;;28.31;53.22;100545.84;146607;576;46018;-66
2022/06/24 00:27:01;;;;;;;;;25.50;20.75;;;;;28.23;53.43;100545.19;146606;579;46010;-68
2022/06/24 00:29:54;;;;;;;;;18.75;18.00;;;;;28.20;53.24;100552.37;146606;574;46019;-67
2022/06/24 00:32:47;;;;;;;;;23.00;22.25;;;;;28.19;54.07;100555.94;146605;620;46010;-67
2022/06/24 00:35:48;;;;;;;;;21.75;21.75;;;;;28.17;53.10;100555.13;146605;648;46010;-70
2022/06/24 00:38:42;;;;;;;;;22.25;21.50;;;;;28.15;54.03;100564.94;146607;652;46019;-68
2022/06/24 00:41:35;;;;;;;;;19.25;19.25;;;;;28.19;55.66;100566.59;146607;586;46008;-69
2022/06/24 00:44:29;;;;;;;;;18.25;17.50;;;;;28.21;57.45;100573.66;146610;586;46010;-71
2022/06/24 00:47:22;;;;;;;;;21.50;21.00;;;;;28.20;57.22;100571.91;146606;563;46018;-72
2022/06/24 00:50:30;;;;;;;;;20.50;19.00;;;;;28.19;55.13;100569.28;146607;627;46011;-71
2022/06/24 00:53:22;;;;;;;;;19.25;17.25;;;;;28.22;57.20;100577.19;146608;599;46018;-69
2022/06/24 00:56:16;;;;;;;;;19.25;16.50;;;;;28.22;57.32;100583.41;146603;564;46921;-69
2022/06/24 00:59:12;;;;;;;;;22.00;20.75;;;;;28.22;55.26;100579.84;146608;576;45031;-70
2022/06/24 01:02:07;;;;;;;;;22.25;21.25;;;;;28.15;55.99;100575.59;146606;578;46018;-70
2022/06/24 01:05:11;;;;;;;;;18.50;18.50;;;;;28.05;55.36;100569.59;146611;633;46008;-68
2022/06/24 01:08:09;;;;;;;;;18.75;17.25;;;;;27.90;57.24;100568.16;146609;617;46010;-69
2022/06/24 01:11:01;;;;;;;;;19.50;18.25;;;;;27.72;56.56;100564.09;146610;583;45018;-69
2022/06/24 01:13:54;;;;;;;;;16.75;16.25;;;;;27.58;56.65;100560.84;146610;575;46012;-70
2022/06/24 01:16:46;;;;;;;;;21.75;18.25;;;;;27.44;57.03;100557.59;146606;610;46018;-70
2022/06/24 01:19:38;;;;;;;;;19.25;19.00;;;;;27.27;58.40;100560.62;146606;662;46010;-70
2022/06/24 01:22:32;;;;;;;;;20.50;18.00;;;;;27.09;58.64;100560.03;146610;570;46010;-70
2022/06/24 01:25:24;;;;;;;;;19.50;18.25;;;;;26.96;59.03;100566.50;146608;654;46010;-70
2022/06/24 01:28:16;;;;;;;;;20.25;17.75;;;;;26.83;58.91;100555.22;146609;725;46018;-67
2022/06/24 01:31:08;;;;;;;;;19.50;17.00;;;;;26.73;58.69;100566.94;146608;573;46010;-65
2022/06/24 01:34:01;;;;;;;;;23.00;19.50;;;;;26.66;58.76;100568.78;146610;646;45923;-68
2022/06/24 01:36:54;;;;;;;;;24.50;20.75;;;;;26.63;58.57;100575.94;146606;575;46020;-67
2022/06/24 01:39:47;;;;;;;;;18.50;17.75;;;;;26.63;57.99;100568.84;146606;577;46018;-68
2022/06/24 01:42:39;;;;;;;;;20.25;19.75;;;;;26.65;57.79;100561.72;146608;761;46018;-67
2022/06/24 01:45:31;;;;;;;;;19.75;19.00;;;;;26.75;57.21;100569.56;146607;686;46010;-68
2022/06/24 01:48:23;;;;;;;;;23.00;20.75;;;;;26.82;56.92;100587.16;146609;575;45018;-67
2022/06/24 01:51:18;;;;;;;;;24.50;19.50;;;;;26.88;56.70;100590.56;146610;666;46008;-68
2022/06/24 01:54:10;;;;;;;;;19.75;17.25;;;;;26.94;57.17;100593.13;146607;599;46018;-67
2022/06/24 01:57:03;;;;;;;;;20.75;18.00;;;;;26.99;57.38;100592.19;146610;596;46008;-69
2022/06/24 01:59:58;;;;;;;;;21.00;19.25;;;;;27.02;57.57;100593.00;146606;581;46018;-70
2022/06/24 02:02:50;;;;;;;;;21.25;21.25;;;;;27.02;58.07;100589.47;146608;585;46010;-69
2022/06/24 02:05:42;;;;;;;;;23.75;21.00;;;;;26.98;58.61;100593.06;146605;584;46019;-68
2022/06/24 02:08:34;;;;;;;;;21.50;19.25;;;;;26.93;58.61;100590.50;146608;711;46008;-69
2022/06/24 02:14:38;;;;;;;;;23.00;22.75;;;;;26.82;59.09;100598.69;146607;566;46010;-69
2022/06/24 02:17:30;;;;;;;;;20.25;19.25;;;;;26.75;58.74;100601.47;146608;600;46012;-70
2022/06/24 02:20:23;;;;;;;;;20.50;18.00;;;;;26.65;58.64;100601.62;146607;628;46008;-69
2022/06/24 02:23:15;;;;;;;;;24.50;21.25;;;;;26.60;58.88;100583.97;146608;647;46018;-68
2022/06/24 02:26:07;;;;;;;;;20.00;20.00;;;;;26.56;59.54;100590.25;146607;566;46018;-68
2022/06/24 02:29:00;;;;;;;;;23.75;21.00;;;;;26.50;59.28;100599.22;146608;619;45045;-68
2022/06/24 02:31:52;;;;;;;;;17.00;16.25;;;;;26.46;59.09;100594.81;146608;571;46008;-68
2022/06/24 02:34:44;;;;;;;;;17.00;16.25;;;;;26.49;59.50;100592.16;146606;602;46010;-68
2022/06/24 02:37:36;;;;;;;;;18.00;17.25;;;;;26.56;59.68;100591.12;146607;578;46008;-69
2022/06/24 02:40:47;;;;;;;;;19.25;17.25;;;;;26.57;59.86;100590.22;146608;580;46018;-68
2022/06/24 02:43:41;;;;;;;;;22.25;18.50;;;;;26.54;60.32;100592.94;146605;579;46018;-68
2022/06/24 02:46:33;;;;;;;;;15.00;15.00;;;;;26.57;58.93;100607.97;146609;607;46010;-68
2022/06/24 02:49:25;;;;;;;;;22.25;18.00;;;;;26.64;59.37;100601.66;146605;635;46019;-67
2022/06/24 02:52:17;;;;;;;;;20.75;18.25;;;;;26.69;59.12;100605.97;146611;624;46010;-68
2022/06/24 02:55:09;;;;;;;;;14.00;12.50;;;;;26.78;58.75;100618.25;146608;584;46008;-67
2022/06/24 02:58:01;;;;;;;;;19.00;18.00;;;;;26.89;58.66;100636.72;146608;633;46020;-68
2022/06/24 03:00:54;;;;;;;;;17.25;16.50;;;;;26.99;58.61;100637.41;146604;577;46018;-67
2022/06/24 03:03:46;;;;;;;;;20.75;16.25;;;;;27.08;58.62;100646.09;146608;617;46010;-69
2022/06/24 03:06:38;;;;;;;;;16.00;16.00;;;;;27.17;58.69;100642.44;146611;654;46008;-68
2022/06/24 03:09:30;;;;;;;;;14.00;13.00;;;;;27.22;58.59;100645.88;146608;607;46018;-68
2022/06/24 03:12:22;;;;;;;;;18.75;16.75;;;;;27.22;58.63;100637.88;146606;570;46018;-65
2022/06/24 03:15:14;;;;;;;;;17.75;17.00;;;;;27.17;58.72;100647.78;146608;569;46018;-65
2022/06/24 03:18:07;;;;;;;;;19.00;16.00;;;;;27.13;58.73;100657.56;146610;564;46008;-67
2022/06/24 03:20:59;;;;;;;;;17.25;16.50;;;;;27.15;58.57;100653.09;146608;703;46019;-66
2022/06/24 03:23:51;;;;;;;;;16.75;16.25;;;;;27.18;59.29;100644.19;146605;575;46922;-66
2022/06/24 03:26:43;;;;;;;;;16.25;14.50;;;;;27.16;58.35;100628.22;146607;581;46012;-68
2022/06/24 03:29:36;;;;;;;;;15.75;15.50;;;;;27.16;59.53;100625.56;146608;595;46018;-66
2022/06/24 03:32:27;;;;;;;;;18.25;18.25;;;;;27.18;59.51;100633.53;146610;569;46010;-65
2022/06/24 03:35:20;;;;;;;;;16.00;14.25;;;;;27.16;58.72;100648.66;146605;695;46008;-67
2022/06/24 03:38:11;;;;;;;;;16.75;16.00;;;;;27.21;58.54;100662.75;146609;606;46010;-67
2022/06/24 03:41:03;;;;;;;;;16.00;16.00;;;;;27.31;57.78;100667.00;146605;587;46019;-67
2022/06/24 03:43:55;;;;;;;;;15.50;15.50;;;;;27.46;59.54;100668.50;146612;712;46010;-68
2022/06/24 03:46:48;;;;;;;;;12.75;12.00;;;;;27.51;58.55;100661.31;146608;747;46018;-68
2022/06/24 03:49:39;;;;;;;;;17.75;16.75;;;;;27.58;60.18;100683.38;146608;583;46019;-67
2022/06/24 03:52:32;;;;;;;;;15.25;15.00;;;;;27.59;59.04;100675.34;146610;564;46018;-68
2022/06/24 03:55:23;;;;;;;;;17.00;16.00;;;;;27.62;58.23;100677.94;146607;576;46018;-67
2022/06/24 03:58:16;;;;;;;;;15.25;13.25;;;;;27.70;58.39;100690.25;146609;718;46018;-67
2022/06/24 04:01:08;;;;;;;;;16.75;14.25;;;;;27.78;58.07;100693.66;146607;565;46010;-67
2022/06/24 04:04:00;;;;;;;;;16.25;14.50;;;;;27.84;58.05;100699.72;146601;579;47923;-67
2022/06/24 04:06:52;;;;;;;;;20.75;19.50;;;;;27.86;58.48;100689.94;146610;580;46010;-68
2022/06/24 04:09:44;;;;;;;;;17.00;17.00;;;;;27.85;57.76;100703.28;146608;700;46008;-71
2022/06/24 04:12:36;;;;;;;;;12.50;12.00;;;;;27.85;58.01;100709.50;146609;630;46019;-66
2022/06/24 04:15:28;;;;;;;;;18.50;16.50;;;;;27.92;57.47;100715.59;146609;589;46018;-67
2022/06/24 04:18:21;;;;;;;;;14.00;12.25;;;;;27.96;57.10;100711.94;146610;575;46010;-67
2022/06/24 04:21:18;;;;;;;;;18.75;17.75;;;;;28.01;56.76;100711.84;146609;619;46018;-66
2022/06/24 04:24:10;;;;;;;;;16.50;15.00;;;;;28.02;57.60;100702.94;146608;565;46018;-67
2022/06/24 04:27:02;;;;;;;;;17.00;12.50;;;;;28.02;57.98;100698.47;146608;638;46018;-68
2022/06/24 04:29:54;;;;;;;;;17.75;14.00;;;;;27.99;57.19;100679.88;146613;666;46012;-68
2022/06/24 04:32:46;;;;;;;;;13.50;12.50;;;;;28.01;57.11;100680.75;146609;576;46008;-70
2022/06/24 04:35:38;;;;;;;;;18.00;16.25;;;;;28.14;57.20;100696.47;146610;583;46010;-70
2022/06/24 04:38:30;;;;;;;;;18.75;15.75;;;;;28.27;57.72;100692.62;146603;577;46923;-71
2022/06/24 04:41:22;;;;;;;;;14.00;13.75;;;;;28.36;56.77;100708.41;146608;577;46019;-70
2022/06/24 04:44:14;;;;;;;;;15.75;15.75;;;;;28.50;56.61;100717.00;146606;690;46018;-69
2022/06/24 04:47:07;;;;;;;;;14.75;14.50;;;;;28.63;56.48;100712.28;146608;597;46011;-69
2022/06/24 04:49:59;;;;;;;;;18.00;12.00;;;;;28.75;56.91;100704.00;146608;631;46008;-74
2022/06/24 04:52:51;;;;;;;;;16.25;16.25;;;;;28.79;55.90;100702.13;146607;630;46018;-74
2022/06/24 04:55:44;;;;;;;;;17.00;16.50;;;;;28.79;56.16;100704.78;146608;594;46018;-73
2022/06/24 04:58:36;;;;;;;;;17.00;15.50;;;;;28.81;56.46;100702.94;146610;752;46010;-72
2022/06/24 05:01:29;;;;;;;;;17.75;14.25;;;;;28.87;56.08;100704.59;146607;576;46019;-73
2022/06/24 05:04:22;;;;;;;;;19.75;17.25;;;;;28.92;56.20;100695.56;146607;693;46018;-70
2022/06/24 05:07:14;;;;;;;;;16.00;13.00;;;;;28.99;55.89;100685.59;146606;604;46008;-71
2022/06/24 05:10:06;;;;;;;;;14.00;13.00;;;;;29.07;55.42;100697.00;146608;585;46019;-70
2022/06/24 05:12:59;;;;;;;;;18.75;16.75;;;;;29.09;55.41;100696.94;146631;563;45018;-70
2022/06/24 05:15:51;;;;;;;;;18.25;17.00;;;;;29.09;55.16;100686.28;146629;585;45018;-71
2022/06/24 05:18:43;;;;;;;;;16.25;16.00;;;;;29.05;55.23;100693.47;146631;609;45010;-72
2022/06/24 05:21:35;;;;;;;;;18.00;16.00;;;;;29.00;55.90;100690.91;146632;611;45010;-69
2022/06/24 05:24:27;;;;;;;;;16.00;15.50;;;;;28.92;55.82;100690.22;146631;570;45011;-69
2022/06/24 05:27:19;;;;;;;;;15.50;15.00;;;;;28.90;55.95;100694.72;146630;564;45010;-70
2022/06/24 05:30:12;;;;;;;;;18.75;16.75;;;;;28.87;56.62;100691.25;146628;641;45923;-70
2022/06/24 05:33:04;;;;;;;;;16.50;16.25;;;;;28.89;55.79;100697.44;146629;625;45019;-70
2022/06/24 05:35:58;;;;;;;;;18.00;16.50;;;;;28.88;56.06;100675.22;146631;563;44018;-69
2022/06/24 05:38:50;;;;;;;;;14.00;13.00;;;;;28.90;55.96;100676.03;146625;570;46010;-71
2022/06/24 05:41:45;;;;;;;;;13.75;13.75;;;;;28.88;56.10;100669.88;146632;571;45010;-68
2022/06/24 05:44:36;;;;;;;;;15.75;13.50;;;;;28.86;56.04;100676.16;146625;578;46010;-70
2022/06/24 05:47:29;;;;;;;;;17.25;13.75;;;;;28.83;56.07;100671.75;146630;624;45010;-68
2022/06/24 05:50:21;;;;;;;;;16.75;15.50;;;;;28.84;55.93;100673.50;146633;603;45034;-72
2022/06/24 05:56:23;;;;;;;;;19.00;18.25;;;;;28.91;56.24;100692.91;146629;569;46010;-71
2022/06/24 05:59:15;;;;;;;;;20.00;18.00;;;;;28.93;56.23;100696.44;146631;621;45008;-72
2022/06/24 06:02:09;;;;;;;;;20.00;17.75;;;;;28.98;56.60;100694.53;146629;712;46008;-71
2022/06/24 06:05:01;;;;;;;;;20.25;17.75;;;;;29.05;56.38;100696.16;146631;578;45010;-71
2022/06/24 06:07:53;;;;;;;;;17.50;17.50;;;;;29.08;56.36;100693.41;146629;586;45018;-70
2022/06/24 06:10:45;;;;;;;;;16.50;15.50;;;;;29.11;55.67;100698.66;146625;569;45018;-70
2022/06/24 06:13:37;;;;;;;;;16.75;16.75;;;;;29.06;56.97;100707.69;146610;569;45018;-70
2022/06/24 06:16:30;;;;;;;;;18.50;16.25;;;;;28.12;56.85;100565.00;146613;564;45010;-73
2022/06/24 06:19:22;;;;;;;;;20.75;18.25;;;;;28.98;56.82;100719.44;146607;615;46019;-70
2022/06/24 06:22:14;;;;;;;;;15.50;15.00;;;;;29.00;57.11;100722.94;146608;593;46018;-72
2022/06/24 06:25:08;;;;;;;;;19.25;17.75;;;;;29.00;57.45;100720.28;146605;570;46010;-71
2022/06/24 06:28:01;;;;;;;;;12.75;12.50;;;;;29.10;57.37;100712.06;146607;624;46018;-72
2022/06/24 06:30:54;;;;;;;;;16.25;15.50;;;;;29.26;56.91;100712.56;146611;564;45020;-72
2022/06/24 06:33:46;;;;;;;;;18.00;16.50;;;;;29.38;55.22;100715.78;146605;629;46018;-71
2022/06/24 06:36:38;;;;;;;;;17.00;16.75;;;;;29.52;56.30;100704.69;146607;666;46010;-72
2022/06/24 06:39:30;;;;;;;;;18.50;16.50;;;;;29.68;54.85;100705.19;146605;659;46018;-72
2022/06/24 06:42:22;;;;;;;;;17.00;14.75;;;;;29.85;54.18;100712.75;146611;591;46010;-71
2022/06/24 06:45:14;;;;;;;;;18.00;16.50;;;;;30.00;55.08;100716.75;146608;610;46008;-72
2022/06/24 06:48:07;;;;;;;;;18.75;15.75;;;;;30.10;54.13;100718.25;146610;590;46010;-71
2022/06/24 06:51:01;;;;;;;;;15.75;14.75;;;;;30.11;53.87;100711.97;146609;593;46018;-71
2022/06/24 06:53:53;;;;;;;;;17.75;14.00;;;;;30.03;53.82;100708.63;146611;565;46011;-72
2022/06/24 06:56:45;;;;;;;;;19.75;17.50;;;;;29.88;53.93;100708.19;146604;586;46018;-72
2022/06/24 06:59:37;;;;;;;;;15.75;15.50;;;;;29.76;53.39;100707.66;146606;582;46018;-72
2022/06/24 07:02:29;;;;;;;;;16.25;15.00;;;;;29.62;54.18;100708.03;146608;610;46009;-71
2022/06/24 07:05:22;;;;;;;;;16.00;16.00;;;;;29.50;54.16;100716.34;146610;594;46010;-72
2022/06/24 07:08:15;;;;;;;;;17.00;14.25;;;;;29.41;54.36;100717.50;146609;616;46008;-72
2022/06/24 07:11:10;;;;;;;;;17.75;15.25;;;;;29.31;53.80;100708.81;146609;599;46018;-71
2022/06/24 07:14:02;;;;;;;;;17.50;14.00;;;;;29.22;54.08;100706.38;146612;574;46010;-71
2022/06/24 07:16:54;;;;;;;;;14.00;13.00;;;;;29.14;54.45;100705.72;146609;570;46019;-71
2022/06/24 07:19:46;;;;;;;;;12.50;12.00;;;;;29.04;54.35;100706.88;146607;569;46008;-72
2022/06/24 07:22:38;;;;;;;;;14.00;12.50;;;;;28.91;55.31;100706.25;146608;699;46010;-72
2022/06/24 07:25:30;;;;;;;;;13.75;12.00;;;;;28.89;54.67;100702.78;146611;593;46008;-71
2022/06/24 07:28:24;;;;;;;;;14.50;14.50;;;;;28.95;54.40;100697.28;146612;660;46010;-72
2022/06/24 07:31:18;;;;;;;;;11.50;11.25;;;;;29.14;54.37;100695.91;146604;730;46018;-72
2022/06/24 07:34:11;;;;;;;;;15.75;14.25;;;;;29.33;53.43;100690.97;146608;579;46010;-71
2022/06/24 07:37:04;;;;;;;;;15.25;14.75;;;;;29.54;52.67;100684.16;146606;582;46018;-72
2022/06/24 07:39:56;;;;;;;;;11.75;11.00;;;;;29.79;53.02;100686.19;146611;606;45019;-71
2022/06/24 07:42:49;;;;;;;;;19.25;16.50;;;;;30.03;51.99;100689.91;146613;589;46008;-72
2022/06/24 07:45:41;;;;;;;;;15.50;14.50;;;;;30.24;51.20;100700.00;146613;571;45018;-68
2022/06/24 07:48:33;;;;;;;;;18.75;15.75;;;;;30.44;51.62;100704.75;146610;621;46008;-71
2022/06/24 07:51:25;;;;;;;;;16.00;12.75;;;;;30.55;50.87;100697.25;146607;585;46018;-70
2022/06/24 07:54:18;;;;;;;;;17.50;17.50;;;;;30.64;50.64;100690.72;146606;579;46923;-70
2022/06/24 07:57:10;;;;;;;;;19.00;16.50;;;;;30.73;50.52;100693.09;146610;569;46018;-68
2022/06/24 08:00:03;;;;;;;;;14.75;14.00;;;;;30.82;49.96;100695.50;146607;612;46008;-69
2022/06/24 08:02:54;;;;;;;;;15.75;14.50;;;;;30.88;49.79;100698.91;146607;608;46018;-69
2022/06/24 08:05:47;;;;;;;;;16.75;14.50;;;;;30.93;49.87;100703.16;146610;621;45018;-69
2022/06/24 08:08:39;;;;;;;;;15.25;14.50;;;;;30.98;49.74;100708.37;146608;564;46019;-69
2022/06/24 08:11:31;;;;;;;;;15.25;14.25;;;;;31.02;49.60;100702.00;146610;636;46010;-69
2022/06/24 08:14:24;;;;;;;;;13.50;11.50;;;;;31.04;49.57;100706.38;146608;582;46011;-69
2022/06/24 08:17:17;;;;;;;;;13.75;13.25;;;;;31.06;48.85;100696.50;146606;573;46018;-68
2022/06/24 08:20:10;;;;;;;;;12.00;11.00;;;;;31.05;47.03;100700.09;146609;608;46010;-70
2022/06/24 08:23:03;;;;;;;;;10.00;10.00;;;;;31.00;46.16;100710.09;146608;569;46019;-67
2022/06/24 08:25:54;;;;;;;;;11.00;10.00;;;;;30.98;46.00;100711.06;146613;609;46018;-68
2022/06/24 08:28:47;;;;;;;;;9.25;9.25;;;;;31.00;45.50;100698.50;146607;660;46018;-68
2022/06/24 08:31:40;;;;;;;;;10.00;8.25;;;;;31.07;45.89;100705.41;146615;655;46010;-68
2022/06/24 08:34:32;;;;;;;;;8.25;8.00;;;;;31.12;44.94;100708.78;146612;564;46010;-69
2022/06/24 08:37:24;;;;;;;;;12.00;11.00;;;;;31.16;44.85;100710.44;146611;650;46019;-70
2022/06/24 08:40:17;;;;;;;;;11.00;10.00;;;;;31.23;44.49;100711.97;146616;661;46018;-70
2022/06/24 08:43:10;;;;;;;;;11.75;11.50;;;;;31.35;42.66;100713.41;146611;680;46010;-69
2022/06/24 08:46:02;;;;;;;;;11.75;10.50;;;;;31.39;43.61;100714.16;146610;565;46019;-69
2022/06/24 08:48:58;;;;;;;;;12.00;10.00;;;;;31.41;43.61;100723.91;146615;565;45018;-69
2022/06/24 08:51:52;;;;;;;;;11.50;11.00;;;;;31.41;43.85;100721.22;146612;584;47923;-70
2022/06/24 08:54:46;;;;;;;;;13.25;12.75;;;;;31.43;43.56;100730.06;146611;579;46010;-69
2022/06/24 08:57:38;;;;;;;;;11.75;11.75;;;;;31.34;42.63;100746.47;146615;628;46010;-70
2022/06/24 09:00:31;;;;;;;;;10.50;10.00;;;;;31.27;43.44;100732.34;146612;609;45047;-68
2022/06/24 09:03:23;;;;;;;;;12.50;12.00;;;;;31.23;43.33;100735.22;146612;664;46008;-68
2022/06/24 09:06:20;;;;;;;;;12.50;10.25;;;;;31.30;44.39;100723.34;146612;612;46010;-70
2022/06/24 09:09:13;;;;;;;;;13.25;11.50;;;;;31.35;43.59;100734.81;146608;643;45019;-70
2022/06/24 09:12:06;;;;;;;;;11.75;11.50;;;;;31.24;43.61;100734.28;146611;584;46018;-69
2022/06/24 09:14:58;;;;;;;;;8.00;7.00;;;;;30.24;44.06;100576.97;146614;676;46877;-70
2022/06/24 09:17:49;;;;;;;;;7.50;7.00;;;;;31.10;44.42;100736.56;146620;570;46012;-69
2022/06/24 09:20:42;;;;;;;;;13.50;10.75;;;;;31.03;44.49;100731.41;146607;582;47923;-67
2022/06/24 09:23:34;;;;;;;;;12.00;10.00;;;;;31.09;44.58;100742.81;146615;632;46010;-69
2022/06/24 09:26:47;;;;;;;;;8.50;7.75;;;;;29.35;44.03;100438.09;146613;606;46018;-69
2022/06/24 09:29:39;;;;;;;;;14.75;12.00;;;;;31.01;43.68;100743.09;146606;594;45027;-69
2022/06/24 09:32:31;;;;;;;;;9.75;8.25;;;;;30.83;45.20;100742.75;146614;584;46018;-68
2022/06/24 09:35:24;;;;;;;;;9.00;8.00;;;;;30.60;45.96;100743.47;146618;729;46018;-68
2022/06/24 09:38:16;;;;;;;;;10.50;10.00;;;;;30.43;46.58;100748.47;146613;575;46008;-68
2022/06/24 09:41:09;;;;;;;;;10.00;9.25;;;;;30.26;47.06;100750.78;146617;595;46010;-70
2022/06/24 09:44:03;;;;;;;;;9.25;9.25;;;;;30.12;46.98;100744.00;146613;623;46010;-69
2022/06/24 09:47:08;;;;;;;;;13.75;12.00;;;;;29.93;48.04;100738.31;146615;579;46018;-69
2022/06/24 09:50:01;;;;;;;;;13.25;12.00;;;;;29.88;48.26;100742.06;146612;569;46018;-68
2022/06/24 09:52:53;;;;;;;;;10.50;10.00;;;;;29.87;47.77;100759.84;146610;587;45019;-67
2022/06/24 09:55:46;;;;;;;;;14.75;13.50;;;;;29.85;47.93;100761.72;146608;707;46018;-68
2022/06/24 09:58:39;;;;;;;;;13.25;12.75;;;;;29.80;48.59;100762.75;146610;570;46021;-67
2022/06/24 10:01:33;;;;;;;;;13.75;12.75;;;;;29.78;48.23;100757.44;146607;588;46018;-68
2022/06/24 10:04:25;;;;;;;;;14.25;13.25;;;;;29.83;48.09;100760.88;146610;569;46018;-68
2022/06/24 10:07:18;;;;;;;;;16.75;15.25;;;;;29.89;47.67;100749.16;146608;588;46008;-69
2022/06/24 10:10:11;;;;;;;;;16.50;16.25;;;;;29.93;47.97;100726.75;146608;570;46010;-70
2022/06/24 10:13:10;;;;;;;;;21.75;18.75;;;;;30.11;46.92;100726.19;146628;580;45030;-69
2022/06/24 10:16:07;;;;;;;;;20.50;18.75;;;;;30.32;47.25;100723.84;146631;582;45019;-68
2022/06/24 10:19:01;;;;;;;;;16.25;16.25;;;;;30.45;47.00;100702.94;146628;579;46008;-69
2022/06/24 10:21:53;;;;;;;;;17.75;16.50;;;;;30.66;46.42;100712.09;146630;630;45019;-70
2022/06/24 10:24:45;;;;;;;;;19.50;17.00;;;;;30.90;46.13;100716.66;146626;611;46010;-69
2022/06/24 10:28:21;;;;;;;;;21.50;20.25;;;;;31.21;45.62;100707.59;146629;586;45012;-69
2022/06/24 10:31:13;;;;;;;;;20.50;20.25;;;;;31.41;45.13;100712.31;146631;577;45018;-69
2022/06/24 10:34:06;;;;;;;;;18.75;17.50;;;;;31.57;44.55;100721.53;146632;581;45010;-68
2022/06/24 10:37:30;;;;;;;;;22.00;18.00;;;;;30.73;44.70;100567.31;146623;576;46008;-68
2022/06/24 10:40:28;;;;;;;;;21.75;19.75;;;;;31.72;44.29;100729.03;146633;585;44040;-68
2022/06/24 10:43:43;;;;;;;;;21.00;19.00;;;;;31.75;43.62;100731.59;146628;731;45011;-70
2022/06/24 10:46:35;;;;;;;;;16.00;16.00;;;;;31.82;43.45;100726.03;146632;564;45020;-70
2022/06/24 10:49:27;;;;;;;;;16.25;16.00;;;;;31.90;43.57;100732.88;146628;583;45018;-68
2022/06/24 10:53:00;;;;;;;;;17.25;16.00;;;;;31.00;44.59;100568.19;146628;651;45019;-68
2022/06/24 10:55:52;;;;;;;;;18.00;16.25;;;;;32.02;43.96;100744.94;146629;586;46010;-69
2022/06/24 10:58:45;;;;;;;;;18.50;17.75;;;;;32.02;43.69;100747.62;146631;583;45011;-68
2022/06/24 11:01:37;;;;;;;;;17.50;17.00;;;;;32.09;44.06;100751.84;146630;687;45925;-69
2022/06/24 11:04:32;;;;;;;;;17.50;13.25;;;;;32.03;44.15;100753.88;146630;597;46012;-70
2022/06/24 11:07:25;;;;;;;;;18.50;17.50;;;;;31.81;44.11;100760.00;146628;581;46010;-69
2022/06/24 11:10:24;;;;;;;;;16.50;15.25;;;;;31.63;45.14;100758.84;146631;563;45010;-70
2022/06/24 11:13:17;;;;;;;;;14.50;14.00;;;;;31.47;45.03;100761.19;146633;576;45019;-69
2022/06/24 11:16:10;;;;;;;;;9.00;8.75;;;;;30.84;45.63;100754.34;146639;698;45010;-71
2022/06/24 11:19:02;;;;;;;;;9.25;8.25;;;;;30.23;46.61;100753.56;146636;571;45022;-74
2022/06/24 11:21:57;;;;;;;;;13.25;12.00;;;;;29.76;47.29;100753.97;146636;652;45019;-72
2022/06/24 11:24:52;;;;;;;;;11.75;11.25;;;;;29.52;49.00;100757.25;146631;569;45018;-72
2022/06/24 11:27:45;;;;;;;;;9.00;9.00;;;;;29.59;48.53;100766.84;146642;574;45010;-71
2022/06/24 11:30:37;;;;;;;;;13.00;11.00;;;;;29.72;48.37;100765.66;146632;575;45032;-72
2022/06/24 11:33:29;;;;;;;;;12.50;12.00;;;;;29.93;48.21;100775.72;146635;591;45010;-71
2022/06/24 11:36:23;;;;;;;;;13.25;11.00;;;;;30.13;47.70;100766.28;146633;629;46008;-72
2022/06/24 11:39:15;;;;;;;;;11.00;11.00;;;;;30.33;47.11;100774.62;146631;621;45018;-73
2022/06/24 11:42:08;;;;;;;;;18.00;14.25;;;;;30.49;46.19;100763.47;146628;564;45010;-71
2022/06/24 11:44:59;;;;;;;;;10.25;7.00;;;;;30.61;45.06;100768.44;146636;620;46010;-72
2022/06/24 11:47:52;;;;;;;;;11.50;11.50;;;;;30.75;45.96;100766.22;146625;581;45010;-71
2022/06/24 11:50:44;;;;;;;;;12.50;11.75;;;;;30.83;44.19;100774.88;146633;564;46010;-73
2022/06/24 11:53:36;;;;;;;;;14.50;13.50;;;;;30.01;45.35;100606.22;146631;565;46008;-72
2022/06/24 11:56:34;;;;;;;;;11.25;10.00;;;;;30.92;45.75;100771.03;146632;598;45018;-72
2022/06/24 11:59:27;;;;;;;;;11.25;11.25;;;;;30.94;46.15;100762.97;146632;578;45019;-72
2022/06/24 12:02:20;;;;;;;;;11.50;11.50;;;;;30.97;45.12;100774.47;146630;591;45010;-71
2022/06/24 12:05:13;;;;;;;;;10.25;8.00;;;;;30.96;45.40;100774.50;146638;606;45019;-72
2022/06/24 12:08:05;;;;;;;;;12.50;10.75;;;;;30.88;45.06;100771.22;146633;681;45019;-72
2022/06/24 12:10:59;;;;;;;;;15.00;12.25;;;;;30.86;45.86;100767.69;146625;584;45010;-73
2022/06/24 12:14:08;;;;;;;;;12.00;12.00;;;;;30.94;45.87;100768.34;146613;659;46010;-71
2022/06/24 12:17:09;;;;;;;;;16.25;14.00;;;;;31.08;43.50;100779.44;146609;604;46018;-72
2022/06/24 12:20:06;;;;;;;;;15.50;15.50;;;;;31.23;44.36;100781.62;146608;593;46018;-71
2022/06/24 12:23:25;;;;;;;;;12.00;11.25;;;;;31.34;44.76;100773.28;146610;570;46008;-71
2022/06/24 12:26:23;;;;;;;;;14.50;12.75;;;;;31.39;44.12;100773.97;146609;694;46010;-72
2022/06/24 12:29:15;;;;;;;;;12.00;10.25;;;;;31.43;44.17;100772.06;146612;610;46923;-72
2022/06/24 12:32:09;;;;;;;;;12.25;11.25;;;;;31.42;44.91;100768.50;146608;680;46020;-71
2022/06/24 12:35:01;;;;;;;;;10.50;10.50;;;;;31.40;44.53;100772.16;146611;570;46010;-71
2022/06/24 12:37:56;;;;;;;;;11.50;10.00;;;;;31.46;44.60;100775.50;146613;565;46010;-71
2022/06/24 12:40:49;;;;;;;;;11.50;11.50;;;;;31.57;43.90;100769.78;146614;732;46008;-71
2022/06/24 12:43:53;;;;;;;;;11.50;11.50;;;;;31.67;43.23;100779.25;146609;594;45019;-71
2022/06/24 12:53:10;;;;;;;;;18.00;16.00;;;;;31.82;42.47;100776.97;146607;626;47008;-73
2022/06/24 12:56:03;;;;;;;;;15.00;14.00;;;;;30.98;42.35;100633.41;146607;657;45018;-73
2022/06/24 12:58:57;;;;;;;;;17.00;14.00;;;;;31.81;42.40;100772.50;146608;639;45923;-71
2022/06/24 13:01:50;;;;;;;;;17.75;14.75;;;;;31.83;42.11;100779.56;146608;580;46010;-70
2022/06/24 13:04:42;;;;;;;;;15.00;14.00;;;;;31.84;42.07;100773.28;146609;618;46018;-70
2022/06/24 13:07:34;;;;;;;;;14.75;13.75;;;;;31.85;42.45;100772.34;146608;618;46012;-72
2022/06/24 13:10:26;;;;;;;;;16.25;16.00;;;;;31.84;42.23;100772.41;146609;597;46018;-72
2022/06/24 13:13:18;;;;;;;;;13.00;13.00;;;;;31.87;43.39;100769.59;146604;611;46010;-71
2022/06/24 13:16:10;;;;;;;;;15.00;12.75;;;;;31.92;43.22;100773.03;146608;579;46008;-73
2022/06/24 13:19:02;;;;;;;;;17.00;16.00;;;;;31.18;42.33;100628.22;146606;593;45044;-70
2022/06/24 13:21:55;;;;;;;;;15.25;13.50;;;;;32.07;42.61;100761.75;146612;605;45018;-72